Stations météo

réclame
Mon MeteoGroup
Great Dun Fell, Grande-Bretagne (3227): Température de l'air & dewpoint: 19.02.2018 09:00:00 - 25.02.2018 09:00:00 (GMT)Great Dun Fell, Grande-Bretagne (3227): Vitesse du vent & gusts: 19.02.2018 09:00:00 - 25.02.2018 09:00:00 (GMT)Great Dun Fell, Grande-Bretagne (3227): Direction du vent: 19.02.2018 09:00:00 - 25.02.2018 09:00:00 (GMT)
Date & Time tt [°C] td [°C] ff [km/h] ff [knt] fx [km/h] fx [knt] dd
25.02.2018 09:00:00 -5,5 -5,6 39 21 50 27 E
25.02.2018 08:00:00 -5,5 -5,7 41 22 54 29 ESE
25.02.2018 07:00:00 -5,4 -5,6 42 23 52 28 E
25.02.2018 06:00:00 -5,1 -5,2 41 22 52 28 E
25.02.2018 05:00:00 -4,7 -4,8 44 24 54 29 E
25.02.2018 04:00:00 -4,6 -4,7 41 22 61 33 E
25.02.2018 03:00:00 -4,5 -4,5 39 21 54 29 E
25.02.2018 02:00:00 -4,4 -4,5 46 25 57 31 ESE
25.02.2018 01:00:00 -4,5 -4,6 44 24 57 31 ESE
25.02.2018 00:00:00 -4,7 -4,7 39 21 52 28 E
24.02.2018 23:00:00 -4,6 -4,6 37 20 65 35 E
24.02.2018 22:00:00 -4,6 -4,7 55 30 70 38 ESE
24.02.2018 21:00:00 -4,7 -4,7 50 27 65 35 E
24.02.2018 20:00:00 -4,6 -4,6 54 29 67 36 E
24.02.2018 19:00:00 -4,0 -4,0 59 32 70 38 ESE
24.02.2018 18:00:00 -3,6 -3,8 54 29 61 33 E
24.02.2018 17:00:00 -2,9 -5,8 46 25 59 32 E
24.02.2018 16:00:00 -2,8 -8,3 50 27 70 38 ESE
24.02.2018 15:00:00 -3,0 -8,1 54 29 67 36 ESE
24.02.2018 14:00:00 -3,3 -7,7 55 30 68 37 ESE
24.02.2018 13:00:00 -3,9 -6,8 54 29 65 35 ESE
24.02.2018 12:00:00 -3,9 -4,5 48 26 63 34 ESE
24.02.2018 11:00:00 -4,4 -4,4 50 27 65 35 ESE
24.02.2018 10:00:00 -4,8 -4,9 50 27 65 35 ESE
24.02.2018 09:00:00 -5,2 -5,4 48 26 65 35 ESE
24.02.2018 08:00:00 -5,5 -5,7 50 27 61 33 ESE
24.02.2018 07:00:00 -5,6 -5,8 46 25 63 34 ESE
24.02.2018 06:00:00 -5,6 -5,8 55 30 67 36 ESE
24.02.2018 05:00:00 -5,6 -5,8 55 30 65 35 ESE
24.02.2018 04:00:00 -5,6 -5,8 50 27 63 34 ESE
24.02.2018 03:00:00 -5,7 -5,9 48 26 63 34 ESE
24.02.2018 02:00:00 -5,7 -5,9 48 26 59 32 ESE
24.02.2018 01:00:00 -5,8 -6,0 50 27 67 36 ESE
24.02.2018 00:00:00 -5,7 -5,9 54 29 70 38 ESE
23.02.2018 23:00:00 -5,7 -5,9 55 30 74 40 ESE
23.02.2018 22:00:00 -5,6 -5,8 67 36 76 41 ESE
23.02.2018 21:00:00 -5,5 -5,7 63 34 76 41 ESE
23.02.2018 20:00:00 -4,9 -4,9 59 32 72 39 E
23.02.2018 19:00:00 -4,6 -4,7 50 27 61 33 ESE
23.02.2018 18:00:00 -4,5 -4,5 50 27 61 33 ESE
23.02.2018 17:00:00 -3,6 -3,7 37 20 52 28 ESE
23.02.2018 16:00:00 -3,4 -4,9 42 23 57 31 SE
23.02.2018 15:00:00 -3,3 -4,6 48 26 63 34 SE
23.02.2018 14:00:00 -3,0 -4,8 48 26 61 33 SE
23.02.2018 13:00:00 -3,1 -4,3 52 28 63 34 SE
23.02.2018 12:00:00 -3,3 -4,4 50 27 65 35 SE
23.02.2018 11:00:00 -4,1 -5,0 44 24 52 28 SE
23.02.2018 10:00:00 -4,1 -4,4 39 21 54 29 SSE
23.02.2018 09:00:00 -4,1 -4,7 39 21 48 26 S
23.02.2018 08:00:00 -4,7 -5,6 37 20 46 25 S
23.02.2018 07:00:00 -4,8 -5,5 39 21 52 28 S
23.02.2018 06:00:00 -4,7 -5,6 48 26 57 31 S
23.02.2018 05:00:00 -5,2 -5,4 41 22 50 27 S
23.02.2018 04:00:00 -5,4 -6,2 41 22 57 31 SSW
23.02.2018 03:00:00 -5,1 -7,0 50 27 59 32 SSW
23.02.2018 02:00:00 -5,3 -8,5 48 26 54 29 S
23.02.2018 01:00:00 -5,1 -6,5 39 21 50 27 S
23.02.2018 00:00:00 -5,1 -5,4 37 20 46 25 S
22.02.2018 23:00:00 -5,1 -5,2 39 21 48 26 S
22.02.2018 22:00:00 -5,2 -5,5 41 22 46 25 S
22.02.2018 21:00:00 -5,4 -5,4 26 14 - - SSE
22.02.2018 20:00:00 -5,1 -5,1 26 14 - - SSE
22.02.2018 19:00:00 -4,7 -4,8 24 13 - - S
22.02.2018 18:00:00 -4,1 -4,2 24 13 - - SSE
22.02.2018 17:00:00 -3,4 -5,1 28 15 - - S
22.02.2018 16:00:00 -2,6 -6,1 28 15 - - S
22.02.2018 15:00:00 -2,9 -5,7 31 17 - - S
22.02.2018 14:00:00 -3,3 -5,1 34 18 - - S
22.02.2018 13:00:00 -3,5 -4,2 34 18 - - S
22.02.2018 12:00:00 -3,0 -3,2 26 14 - - S
22.02.2018 11:00:00 -3,0 -3,3 31 17 - - S
22.02.2018 10:00:00 -2,9 -3,2 31 17 - - SSE
22.02.2018 09:00:00 -3,2 -3,6 34 18 46 25 SSE
22.02.2018 08:00:00 -3,5 -3,5 15 8 - - SSE
22.02.2018 07:00:00 -3,6 -3,6 29 16 - - SE
22.02.2018 06:00:00 -3,5 -3,5 22 12 - - SE
22.02.2018 05:00:00 -3,0 -3,0 24 13 - - SE
22.02.2018 04:00:00 -2,5 -2,5 24 13 - - ESE
22.02.2018 03:00:00 -2,3 -2,3 18 10 - - ESE
22.02.2018 02:00:00 -2,0 -2,0 21 11 - - ESE
22.02.2018 01:00:00 -2,5 -2,5 18 10 - - ESE
22.02.2018 00:00:00 -2,9 -2,9 22 12 - - ESE
21.02.2018 23:00:00 -3,0 -3,0 18 10 - - E
21.02.2018 22:00:00 -3,0 -3,0 21 11 - - E
21.02.2018 21:00:00 -2,4 -2,4 18 10 - - E
21.02.2018 20:00:00 -1,8 -1,8 18 10 - - E
21.02.2018 19:00:00 -1,8 -1,8 18 10 - - E
21.02.2018 18:00:00 -1,4 -1,4 18 10 - - E
21.02.2018 17:00:00 -1,6 -2,8 15 8 - - E
21.02.2018 16:00:00 -1,1 -2,4 22 12 - - E
21.02.2018 15:00:00 -0,9 -2,8 15 8 - - ENE
21.02.2018 14:00:00 -0,7 -3,7 13 7 - - NE
21.02.2018 13:00:00 -0,7 -3,9 15 8 - - ENE
21.02.2018 12:00:00 -0,6 -2,1 22 12 - - E
21.02.2018 11:00:00 -1,1 -2,0 22 12 - - ENE
21.02.2018 10:00:00 -1,0 -1,2 21 11 - - NE
21.02.2018 09:00:00 -1,9 -1,9 24 13 - - ENE
21.02.2018 08:00:00 -1,9 -1,9 24 13 - - ENE
21.02.2018 07:00:00 -1,8 -1,8 24 13 - - ENE
21.02.2018 06:00:00 -1,6 -1,6 35 19 46 25 ENE
21.02.2018 05:00:00 -1,5 -1,5 42 23 48 26 ENE
21.02.2018 04:00:00 -1,2 -1,2 37 20 48 26 NE
21.02.2018 03:00:00 -0,8 -0,8 42 23 50 27 NE
21.02.2018 02:00:00 -0,6 -0,6 42 23 55 30 ENE
21.02.2018 01:00:00 -0,5 -0,5 46 25 54 29 ENE
21.02.2018 00:00:00 -0,4 -0,4 44 24 57 31 ENE
20.02.2018 23:00:00 -0,3 -0,3 46 25 67 36 NE
20.02.2018 22:00:00 -0,4 -0,4 59 32 70 38 NE
20.02.2018 21:00:00 -0,2 -0,2 54 29 65 35 NE
20.02.2018 20:00:00 -0,2 -0,2 54 29 63 34 NE
20.02.2018 19:00:00 0,2 0,2 44 24 54 29 NE
20.02.2018 18:00:00 0,5 0,1 28 15 57 31 NE
20.02.2018 17:00:00 1,0 -0,4 31 17 55 30 NE
20.02.2018 16:00:00 1,5 -0,9 34 18 59 32 N
20.02.2018 15:00:00 1,6 -0,6 29 16 55 30 N
20.02.2018 14:00:00 1,6 -0,8 29 16 63 34 N
20.02.2018 13:00:00 0,8 -1,0 37 20 68 37 N
20.02.2018 12:00:00 0,4 -0,4 46 25 65 35 N
20.02.2018 11:00:00 -0,1 -0,9 50 27 63 34 N
20.02.2018 10:00:00 -0,5 -0,9 50 27 63 34 N
20.02.2018 09:00:00 -0,5 -0,5 46 25 65 35 NNW
20.02.2018 08:00:00 -0,1 -0,1 50 27 61 33 NNW
20.02.2018 07:00:00 -0,1 -0,1 48 26 67 36 NNW
20.02.2018 06:00:00 0,0 0,0 48 26 68 37 NNW
20.02.2018 05:00:00 0,1 0,1 57 31 72 39 NNW
20.02.2018 04:00:00 0,3 0,3 44 24 68 37 NNW
20.02.2018 03:00:00 1,4 1,4 37 20 59 32 NW
20.02.2018 02:00:00 2,0 2,0 41 22 54 29 NNW
20.02.2018 01:00:00 3,7 3,7 34 18 - - WNW
20.02.2018 00:00:00 3,8 3,8 29 16 48 26 WNW
19.02.2018 23:00:00 4,0 4,0 37 20 - - NW
19.02.2018 22:00:00 4,0 4,0 31 17 - - NW
19.02.2018 21:00:00 4,0 4,0 22 12 - - NNW
19.02.2018 20:00:00 4,3 4,3 26 14 - - NNW
19.02.2018 19:00:00 4,4 4,4 28 15 - - NNW
19.02.2018 18:00:00 4,6 4,6 29 16 - - NNW
19.02.2018 17:00:00 4,9 4,9 28 15 - - NW
19.02.2018 16:00:00 4,7 4,7 29 16 - - NW
19.02.2018 15:00:00 4,8 4,8 29 16 - - NW
19.02.2018 14:00:00 4,7 4,7 26 14 - - NW
19.02.2018 13:00:00 4,6 4,6 31 17 - - NW
19.02.2018 12:00:00 4,6 4,6 31 17 52 28 NW
19.02.2018 11:00:00 4,7 4,7 37 20 50 27 NW
19.02.2018 10:00:00 4,5 4,5 31 17 55 30 WNW
19.02.2018 09:00:00 4,7 4,7 34 18 48 26 NW

tt = Température de l'air
td = dewpoint
ff = Vitesse du vent
fx = gusts
dd = Direction du vent

stations d'obs. à proximité